Time;durP1;ratioP1;P1;durP2;ratioP2;P2;SDS_P1;SDS_P2;PMS_P1;PMS_P2;Temp;Humidity;BMP_temperature;BMP_pressure;BME280_temperature;BME280_humidity;BME280_pressure;Samples;Min_cycle;Max_cycle;Signal;HPM_P1;HPM_P2
2023/03/06 00:01:08;;;;;;;34.00;12.35;;;3.80;77.80;;;;;;4972547;28;92616;-71
2023/03/06 00:03:33;;;;;;;35.67;12.05;;;3.80;77.80;;;;;;4971883;28;94918;-70
2023/03/06 00:05:59;;;;;;;37.65;12.63;;;3.80;77.70;;;;;;4973629;28;92347;-71
2023/03/06 00:08:27;;;;;;;33.85;12.35;;;3.90;77.90;;;;;;4990504;28;93122;-70
2023/03/06 00:10:53;;;;;;;30.92;12.00;;;3.90;77.80;;;;;;4988553;28;92496;-71
2023/03/06 00:13:19;;;;;;;33.50;11.20;;;3.90;77.60;;;;;;4986094;28;92388;-70
2023/03/06 00:15:46;;;;;;;29.38;11.13;;;3.90;78.00;;;;;;4980819;28;92588;-72
2023/03/06 00:18:12;;;;;;;32.67;11.85;;;3.90;78.40;;;;;;4974597;28;94561;-72
2023/03/06 00:20:42;;;;;;;29.85;12.00;;;3.90;78.40;;;;;;4978561;28;92815;-69
2023/03/06 00:23:09;;;;;;;31.15;12.10;;;3.90;78.30;;;;;;4975891;28;92436;-69
2023/03/06 00:25:37;;;;;;;30.17;11.35;;;3.90;78.20;;;;;;4983989;28;92585;-70
2023/03/06 00:28:04;;;;;;;31.13;11.48;;;3.90;78.90;;;;;;4973549;28;93616;-71
2023/03/06 00:30:29;;;;;;;30.38;10.98;;;3.90;78.20;;;;;;4973670;28;93645;-70
2023/03/06 00:32:55;;;;;;;29.20;11.00;;;3.80;78.00;;;;;;4973435;28;92798;-71
2023/03/06 00:35:21;;;;;;;32.22;11.65;;;3.80;78.50;;;;;;4972937;28;92660;-72
2023/03/06 00:37:46;;;;;;;31.77;11.65;;;3.70;80.00;;;;;;4962373;28;93895;-71
2023/03/06 00:40:15;;;;;;;33.35;11.32;;;3.50;80.70;;;;;;4963131;28;94010;-72
2023/03/06 00:42:41;;;;;;;29.40;10.77;;;3.50;81.20;;;;;;4964840;28;92880;-71
2023/03/06 00:45:07;;;;;;;29.00;11.45;;;3.50;81.10;;;;;;4963695;28;93199;-71
2023/03/06 00:47:33;;;;;;;29.55;11.38;;;3.50;80.90;;;;;;4963164;28;93791;-71
2023/03/06 00:49:59;;;;;;;30.92;11.30;;;3.60;80.80;;;;;;4965373;28;94255;-71
2023/03/06 00:52:24;;;;;;;30.40;11.13;;;3.50;80.80;;;;;;4967772;28;93607;-70
2023/03/06 00:54:50;;;;;;;32.90;11.10;;;3.50;81.40;;;;;;4962140;28;93108;-71
2023/03/06 00:57:16;;;;;;;31.38;11.45;;;3.50;81.70;;;;;;4964328;28;96418;-72
2023/03/06 00:59:42;;;;;;;29.75;10.43;;;3.40;82.10;;;;;;4971665;28;92852;-74
2023/03/06 01:02:07;;;;;;;27.77;10.70;;;3.40;82.10;;;;;;4961837;28;94188;-73
2023/03/06 01:04:34;;;;;;;30.08;11.02;;;3.30;81.90;;;;;;4968618;28;92786;-70
2023/03/06 01:06:59;;;;;;;27.13;10.93;;;3.30;81.90;;;;;;4968049;28;93979;-71
2023/03/06 01:09:25;;;;;;;32.15;10.77;;;3.30;82.20;;;;;;4964800;28;93300;-74
2023/03/06 01:11:51;;;;;;;24.10;9.57;;;3.20;82.10;;;;;;4965926;28;94087;-72
2023/03/06 01:14:18;;;;;;;27.75;9.85;;;3.20;82.10;;;;;;4968072;28;92320;-70
2023/03/06 01:16:44;;;;;;;30.35;10.32;;;3.20;81.70;;;;;;4962903;28;95242;-73
2023/03/06 01:19:10;;;;;;;30.55;10.35;;;3.10;81.70;;;;;;4962487;28;94533;-68
2023/03/06 01:21:36;;;;;;;31.67;10.68;;;3.10;82.00;;;;;;4963078;28;93718;-70
2023/03/06 01:24:01;;;;;;;34.58;10.13;;;3.00;81.90;;;;;;4964878;28;94422;-70
2023/03/06 01:26:27;;;;;;;30.90;10.50;;;3.00;81.50;;;;;;4977743;28;93678;-72
2023/03/06 01:28:53;;;;;;;32.72;11.40;;;3.00;81.70;;;;;;4993319;28;93484;-71
2023/03/06 01:31:19;;;;;;;30.45;11.65;;;2.90;82.10;;;;;;4977441;28;92894;-70
2023/03/06 01:33:44;;;;;;;31.80;11.07;;;2.80;82.40;;;;;;4968486;28;91747;-71
2023/03/06 01:36:11;;;;;;;33.28;11.18;;;2.70;82.90;;;;;;4962733;28;93881;-71
2023/03/06 01:38:37;;;;;;;34.92;11.18;;;2.70;83.30;;;;;;4964853;28;94028;-71
2023/03/06 01:41:04;;;;;;;29.20;11.38;;;2.60;83.50;;;;;;4966635;28;94930;-72
2023/03/06 01:43:36;;;;;;;31.60;11.10;;;2.50;84.00;;;;;;4964274;28;94431;-69
2023/03/06 01:46:32;;;;;;;29.85;10.60;;;2.50;84.00;;;;;;4963351;28;94417;-71
2023/03/06 01:48:57;;;;;;;32.17;11.32;;;2.50;84.00;;;;;;4961627;28;96781;-71
2023/03/06 01:51:29;;;;;;;35.55;11.93;;;2.40;84.10;;;;;;4966238;28;94129;-71
2023/03/06 01:53:56;;;;;;;29.00;10.63;;;2.40;84.30;;;;;;4965895;28;94305;-71
2023/03/06 01:56:23;;;;;;;28.75;11.07;;;2.40;84.00;;;;;;4971810;28;93492;-70
2023/03/06 01:58:50;;;;;;;37.53;11.30;;;2.50;84.20;;;;;;4973767;28;93199;-72
2023/03/06 02:01:17;;;;;;;32.92;10.20;;;2.50;84.10;;;;;;4973649;28;92879;-69
2023/03/06 02:03:44;;;;;;;30.20;10.75;;;2.50;84.00;;;;;;4985955;28;92474;-69
2023/03/06 02:06:10;;;;;;;29.02;10.25;;;2.50;84.00;;;;;;4976241;28;93647;-71
2023/03/06 02:08:36;;;;;;;29.40;10.50;;;2.50;84.10;;;;;;4976229;28;93711;-70
2023/03/06 02:11:11;;;;;;;55.90;15.77;;;2.40;84.10;;;;;;4983342;28;92366;-69
2023/03/06 02:13:39;;;;;;;39.22;12.68;;;2.40;84.80;;;;;;4972734;28;92119;-72
2023/03/06 02:16:07;;;;;;;30.20;11.85;;;2.30;84.90;;;;;;4975379;28;93195;-71
2023/03/06 02:18:34;;;;;;;31.58;11.32;;;2.30;85.00;;;;;;4976617;28;92974;-70
2023/03/06 02:21:05;;;;;;;33.72;12.05;;;2.20;84.90;;;;;;4975719;28;92086;-71
2023/03/06 02:23:52;;;;;;;32.45;11.55;;;2.20;85.10;;;;;;4984827;28;91755;-69
2023/03/06 02:26:19;;;;;;;32.60;10.85;;;2.20;85.30;;;;;;4976228;28;93862;-74
2023/03/06 02:28:45;;;;;;;31.50;10.65;;;2.10;85.40;;;;;;4976139;28;93127;-70
2023/03/06 02:31:27;;;;;;;31.50;11.02;;;2.10;85.50;;;;;;4979805;28;94372;-70
2023/03/06 02:34:12;;;;;;;33.67;11.13;;;2.00;85.90;;;;;;4964993;28;92153;-69
2023/03/06 02:36:46;;;;;;;34.22;10.52;;;2.00;85.70;;;;;;4974184;28;92715;-70
2023/03/06 02:39:13;;;;;;;31.70;10.93;;;1.90;85.70;;;;;;4970144;28;92572;-71
2023/03/06 02:41:39;;;;;;;32.42;11.70;;;1.90;86.10;;;;;;4975351;28;92728;-71
2023/03/06 02:44:05;;;;;;;33.45;10.18;;;1.80;86.10;;;;;;4972392;28;94177;-72
2023/03/06 02:46:31;;;;;;;39.75;12.60;;;1.80;86.40;;;;;;4978415;28;93142;-69
2023/03/06 02:48:56;;;;;;;31.40;11.02;;;1.80;86.30;;;;;;4968101;28;92736;-69
2023/03/06 02:51:22;;;;;;;32.10;10.38;;;1.70;86.60;;;;;;4968903;28;93919;-69
2023/03/06 02:53:48;;;;;;;32.38;10.73;;;1.70;86.80;;;;;;4968735;28;93666;-72
2023/03/06 02:56:14;;;;;;;34.50;10.77;;;1.60;86.60;;;;;;4966970;28;93749;-69
2023/03/06 02:58:40;;;;;;;32.83;11.25;;;1.70;86.80;;;;;;4968377;28;94041;-71
2023/03/06 03:01:06;;;;;;;33.92;11.50;;;1.60;86.60;;;;;;4964642;28;94096;-71
2023/03/06 03:03:32;;;;;;;34.78;10.68;;;1.70;86.60;;;;;;4966871;28;92644;-70
2023/03/06 03:05:59;;;;;;;32.00;10.32;;;1.70;86.40;;;;;;4965611;28;93301;-69
2023/03/06 03:08:26;;;;;;;29.30;11.00;;;1.70;87.00;;;;;;4965028;28;94197;-68
2023/03/06 03:10:51;;;;;;;30.92;10.63;;;1.60;87.00;;;;;;4965814;28;93501;-70
2023/03/06 03:13:18;;;;;;;33.78;10.82;;;1.60;87.00;;;;;;4970001;28;92636;-73
2023/03/06 03:15:44;;;;;;;28.75;9.93;;;1.60;87.40;;;;;;4971362;28;93129;-68
2023/03/06 03:18:10;;;;;;;34.38;11.23;;;1.60;87.60;;;;;;4969197;28;92837;-71
2023/03/06 03:20:36;;;;;;;33.60;10.80;;;1.50;87.80;;;;;;4964867;28;93989;-71
2023/03/06 03:23:02;;;;;;;32.78;11.07;;;1.60;88.20;;;;;;4965508;28;93936;-69
2023/03/06 03:25:28;;;;;;;32.80;10.73;;;1.50;88.30;;;;;;4963897;28;93283;-71
2023/03/06 03:27:53;;;;;;;33.58;11.15;;;1.50;88.60;;;;;;4966905;28;93753;-70
2023/03/06 03:30:19;;;;;;;36.58;11.90;;;1.50;88.50;;;;;;4963244;28;94184;-72
2023/03/06 03:32:45;;;;;;;30.77;10.45;;;1.40;88.60;;;;;;4963113;28;92905;-70
2023/03/06 03:35:11;;;;;;;30.75;10.45;;;1.50;88.30;;;;;;4964357;28;92646;-70
2023/03/06 03:37:36;;;;;;;31.48;10.50;;;1.50;88.10;;;;;;4965198;28;92846;-69
2023/03/06 03:40:03;;;;;;;34.83;11.05;;;1.50;87.90;;;;;;4965831;28;92758;-69
2023/03/06 03:42:29;;;;;;;34.17;10.60;;;1.50;88.00;;;;;;4964142;28;94162;-70
2023/03/06 03:44:55;;;;;;;33.58;10.88;;;1.50;87.90;;;;;;4974934;28;94804;-74
2023/03/06 03:47:20;;;;;;;29.67;10.05;;;1.40;88.20;;;;;;4967140;28;93945;-69
2023/03/06 03:49:46;;;;;;;29.23;10.85;;;1.40;88.50;;;;;;4970076;28;94801;-72
2023/03/06 03:52:12;;;;;;;30.10;10.45;;;1.30;88.90;;;;;;4974192;28;94141;-72
2023/03/06 03:54:37;;;;;;;34.45;11.00;;;1.30;89.20;;;;;;4969281;28;93418;-72
2023/03/06 03:57:03;;;;;;;31.85;10.63;;;1.40;89.00;;;;;;4977870;28;92297;-71
2023/03/06 03:59:29;;;;;;;33.20;10.60;;;1.30;89.00;;;;;;4974915;28;92296;-72
2023/03/06 04:01:55;;;;;;;39.42;11.15;;;1.30;89.00;;;;;;4968044;28;92197;-73
2023/03/06 04:04:21;;;;;;;33.78;11.20;;;1.30;89.10;;;;;;4981306;28;93444;-71
2023/03/06 04:06:47;;;;;;;29.92;9.63;;;1.30;89.00;;;;;;4968406;28;93261;-72
2023/03/06 04:09:13;;;;;;;34.55;11.38;;;1.30;89.00;;;;;;4971473;28;94705;-74
2023/03/06 04:11:38;;;;;;;33.50;11.02;;;1.30;89.50;;;;;;4964820;28;92800;-69
2023/03/06 04:14:07;;;;;;;28.13;10.23;;;1.30;89.20;;;;;;4964941;28;93599;-73
2023/03/06 04:16:32;;;;;;;32.28;10.93;;;1.30;89.30;;;;;;4965734;28;93499;-72
2023/03/06 04:18:58;;;;;;;35.40;11.43;;;1.30;89.80;;;;;;4966183;28;92802;-68
2023/03/06 04:21:24;;;;;;;32.75;11.32;;;1.30;90.20;;;;;;4965203;28;94050;-68
2023/03/06 04:23:49;;;;;;;33.33;11.38;;;1.30;90.40;;;;;;4957756;28;93621;-72
2023/03/06 04:26:15;;;;;;;37.67;11.30;;;1.30;90.40;;;;;;4960756;28;93596;-71
2023/03/06 04:28:41;;;;;;;40.70;10.50;;;1.30;90.20;;;;;;4965703;28;92297;-69
2023/03/06 04:31:06;;;;;;;31.85;10.93;;;1.30;90.20;;;;;;4966553;28;94142;-68
2023/03/06 04:33:32;;;;;;;36.40;11.20;;;1.30;90.30;;;;;;4965056;28;94628;-68
2023/03/06 04:35:58;;;;;;;31.00;10.85;;;1.40;90.20;;;;;;4963272;28;94600;-72
2023/03/06 04:38:23;;;;;;;39.28;11.50;;;1.50;90.00;;;;;;4961084;28;92963;-70
2023/03/06 04:40:49;;;;;;;34.55;11.15;;;1.50;90.10;;;;;;4959379;28;94042;-70
2023/03/06 04:43:15;;;;;;;34.60;10.70;;;1.50;90.20;;;;;;4957798;28;93346;-71
2023/03/06 04:45:40;;;;;;;33.50;10.85;;;1.50;90.00;;;;;;4958751;28;94302;-69
2023/03/06 04:48:06;;;;;;;30.52;10.55;;;1.50;90.00;;;;;;4961968;28;94130;-71
2023/03/06 04:50:32;;;;;;;33.13;11.05;;;1.50;90.00;;;;;;4967587;28;93693;-71
2023/03/06 04:53:00;;;;;;;32.88;10.18;;;1.50;90.00;;;;;;4956213;28;93610;-73
2023/03/06 04:55:26;;;;;;;32.05;10.80;;;1.50;90.00;;;;;;4954934;28;96503;-70
2023/03/06 04:57:52;;;;;;;34.30;11.75;;;1.60;89.90;;;;;;4970044;28;94061;-69
2023/03/06 05:00:21;;;;;;;34.63;10.95;;;1.70;89.60;;;;;;4967051;28;94443;-71
2023/03/06 05:02:48;;;;;;;41.72;11.88;;;1.70;90.00;;;;;;4970095;28;93156;-71
2023/03/06 05:05:14;;;;;;;35.67;10.60;;;1.70;90.00;;;;;;4981923;28;92951;-71
2023/03/06 05:07:40;;;;;;;33.35;10.70;;;1.70;90.20;;;;;;4970428;28;92600;-71
2023/03/06 05:10:09;;;;;;;28.42;9.95;;;1.60;90.30;;;;;;4960375;28;94059;-69
2023/03/06 05:12:36;;;;;;;30.25;10.60;;;1.70;90.20;;;;;;4957975;28;93934;-70
2023/03/06 05:15:05;;;;;;;35.92;10.13;;;1.80;90.00;;;;;;4971657;28;93072;-71
2023/03/06 05:17:31;;;;;;;31.75;10.70;;;1.80;90.00;;;;;;4975935;28;92364;-69
2023/03/06 05:19:57;;;;;;;31.20;10.52;;;1.80;90.10;;;;;;4970852;28;92417;-71
2023/03/06 05:22:23;;;;;;;31.65;10.90;;;1.80;90.20;;;;;;4976650;28;93644;-69
2023/03/06 05:24:49;;;;;;;29.75;10.15;;;1.80;90.10;;;;;;4973947;28;93276;-69
2023/03/06 05:27:14;;;;;;;32.10;10.32;;;1.80;90.20;;;;;;4965688;28;92910;-69
2023/03/06 05:29:40;;;;;;;30.95;10.35;;;1.90;90.20;;;;;;4965239;28;94138;-71
2023/03/06 05:32:06;;;;;;;32.90;9.95;;;1.90;90.00;;;;;;4969504;28;93932;-69
2023/03/06 05:34:31;;;;;;;29.70;10.10;;;1.90;89.80;;;;;;4967185;28;92906;-69
2023/03/06 05:36:59;;;;;;;30.80;10.60;;;1.90;89.70;;;;;;4965562;28;92220;-69
2023/03/06 05:39:26;;;;;;;30.70;9.93;;;1.90;89.80;;;;;;4975366;28;91797;-74
2023/03/06 05:41:51;;;;;;;29.45;9.75;;;1.90;89.80;;;;;;4968905;28;94024;-70
2023/03/06 05:44:17;;;;;;;32.92;10.55;;;1.90;90.00;;;;;;4965406;28;92938;-73
2023/03/06 05:46:42;;;;;;;32.17;10.30;;;2.00;90.00;;;;;;4967483;28;94989;-72
2023/03/06 05:49:08;;;;;;;30.48;10.27;;;2.00;89.70;;;;;;4967961;28;94085;-74
2023/03/06 05:51:34;;;;;;;30.40;10.07;;;2.10;89.40;;;;;;4967676;28;94554;-72
2023/03/06 05:53:59;;;;;;;36.28;10.32;;;2.00;89.40;;;;;;4972282;28;92566;-70
2023/03/06 05:56:25;;;;;;;35.78;10.82;;;2.10;89.20;;;;;;4964112;28;94129;-72
2023/03/06 05:58:51;;;;;;;34.63;10.02;;;2.10;88.90;;;;;;4966273;28;94407;-70
2023/03/06 06:01:19;;;;;;;29.92;10.32;;;2.20;89.00;;;;;;4964822;28;94149;-69
2023/03/06 06:03:45;;;;;;;31.35;10.60;;;2.10;88.70;;;;;;4969081;28;94355;-71
2023/03/06 06:06:13;;;;;;;32.85;10.68;;;2.20;88.70;;;;;;4967072;28;94044;-69
2023/03/06 06:08:39;;;;;;;31.30;10.40;;;2.20;88.40;;;;;;4966780;28;94386;-70
2023/03/06 06:11:07;;;;;;;35.08;11.50;;;2.20;88.90;;;;;;4966394;28;95164;-69
2023/03/06 06:13:33;;;;;;;39.00;11.45;;;2.20;88.50;;;;;;4966358;28;94137;-72
2023/03/06 06:15:59;;;;;;;38.55;11.65;;;2.20;88.40;;;;;;4965864;28;94906;-70
2023/03/06 06:18:24;;;;;;;32.17;10.52;;;2.30;88.60;;;;;;4967525;28;93240;-70
2023/03/06 06:20:50;;;;;;;34.53;10.43;;;2.30;88.40;;;;;;4965507;28;93475;-70
2023/03/06 06:23:16;;;;;;;29.80;10.85;;;2.30;88.20;;;;;;4967843;28;92849;-69
2023/03/06 06:25:41;;;;;;;35.78;11.23;;;2.40;88.20;;;;;;4966909;28;92888;-70
2023/03/06 06:28:07;;;;;;;31.33;10.65;;;2.40;88.30;;;;;;4966336;28;92429;-70
2023/03/06 06:30:32;;;;;;;35.00;10.65;;;2.40;88.30;;;;;;4964264;28;94073;-70
2023/03/06 06:32:58;;;;;;;39.92;11.90;;;2.60;87.80;;;;;;4962853;28;93187;-70
2023/03/06 06:35:25;;;;;;;35.28;11.18;;;2.60;87.60;;;;;;4965752;28;93116;-73
2023/03/06 06:37:50;;;;;;;39.75;12.93;;;2.60;87.40;;;;;;4961233;28;92957;-73
2023/03/06 06:40:17;;;;;;;37.53;12.73;;;2.60;87.70;;;;;;4959306;28;95060;-73
2023/03/06 06:42:45;;;;;;;38.92;12.68;;;2.60;87.80;;;;;;4967014;28;95493;-71
2023/03/06 06:45:11;;;;;;;36.50;12.60;;;2.70;87.70;;;;;;4967171;28;94224;-73
2023/03/06 06:47:40;;;;;;;39.95;12.75;;;2.80;87.50;;;;;;4969177;28;93285;-71
2023/03/06 06:50:07;;;;;;;34.75;12.57;;;2.80;87.20;;;;;;4963666;28;93467;-73
2023/03/06 06:52:33;;;;;;;36.10;12.75;;;2.90;87.30;;;;;;4961857;28;93387;-71
2023/03/06 06:54:58;;;;;;;38.58;12.68;;;3.00;87.10;;;;;;4967940;28;92945;-71
2023/03/06 06:57:24;;;;;;;40.22;12.82;;;3.10;86.50;;;;;;4977877;28;93161;-71
2023/03/06 06:59:49;;;;;;;37.17;13.18;;;3.10;86.10;;;;;;4973181;28;95490;-70
2023/03/06 07:02:15;;;;;;;36.78;12.40;;;3.20;85.20;;;;;;4979115;28;93873;-71
2023/03/06 07:04:41;;;;;;;37.05;12.05;;;3.30;85.10;;;;;;4971713;28;92121;-70
2023/03/06 07:07:07;;;;;;;40.80;12.57;;;3.40;84.20;;;;;;4975985;28;93665;-70
2023/03/06 07:09:32;;;;;;;35.00;12.35;;;3.50;84.80;;;;;;4980524;28;94103;-71
2023/03/06 07:11:58;;;;;;;36.85;11.80;;;3.60;83.80;;;;;;4971808;28;93793;-70
2023/03/06 07:14:24;;;;;;;37.22;13.02;;;3.60;83.60;;;;;;4971892;28;94208;-71
2023/03/06 07:16:49;;;;;;;34.38;11.88;;;3.70;83.20;;;;;;4970240;28;91934;-70
2023/03/06 07:19:15;;;;;;;38.97;12.82;;;3.70;82.80;;;;;;4973441;28;93221;-70
2023/03/06 07:21:40;;;;;;;34.55;12.52;;;3.80;82.00;;;;;;4963472;28;94572;-71
2023/03/06 07:24:06;;;;;;;37.47;13.30;;;3.90;81.70;;;;;;4965846;28;95837;-70
2023/03/06 07:26:32;;;;;;;34.58;11.82;;;3.80;81.70;;;;;;4978006;28;92457;-71
2023/03/06 07:28:58;;;;;;;36.28;12.32;;;3.90;81.70;;;;;;4961610;28;93725;-70
2023/03/06 07:31:26;;;;;;;36.78;12.27;;;4.00;81.90;;;;;;4968695;28;94248;-70
2023/03/06 07:33:53;;;;;;;34.97;12.23;;;4.00;81.60;;;;;;4973473;28;92519;-71
2023/03/06 07:36:19;;;;;;;39.00;12.95;;;4.00;82.30;;;;;;4973197;28;93249;-70
2023/03/06 07:38:45;;;;;;;43.15;13.27;;;4.10;81.70;;;;;;4970218;28;94139;-71
2023/03/06 07:41:12;;;;;;;36.13;13.00;;;4.10;82.00;;;;;;4965841;28;93865;-70
2023/03/06 07:43:45;;;;;;;37.92;13.43;;;4.10;82.40;;;;;;4972491;28;92412;-71
2023/03/06 07:46:12;;;;;;;38.42;15.00;;;4.20;82.60;;;;;;4975990;28;92148;-71
2023/03/06 07:48:38;;;;;;;37.83;13.18;;;4.30;81.90;;;;;;4975677;28;94578;-71
2023/03/06 07:51:07;;;;;;;37.45;12.68;;;4.20;81.80;;;;;;4976599;28;93111;-70
2023/03/06 07:53:34;;;;;;;35.90;12.85;;;4.30;81.60;;;;;;4985814;28;92071;-71
2023/03/06 07:56:07;;;;;;;37.88;13.75;;;4.40;81.60;;;;;;4975871;28;92680;-70
2023/03/06 07:58:33;;;;;;;63.60;14.40;;;4.40;81.20;;;;;;4974041;28;93225;-70
2023/03/06 08:01:03;;;;;;;49.90;14.02;;;4.50;81.30;;;;;;4974934;28;92876;-70
2023/03/06 08:03:28;;;;;;;64.25;14.20;;;4.60;81.30;;;;;;4972307;28;94573;-70
2023/03/06 08:06:07;;;;;;;62.00;14.05;;;4.80;80.70;;;;;;4969961;28;92651;-71
2023/03/06 08:08:34;;;;;;;49.88;13.32;;;4.80;80.80;;;;;;4964248;28;93252;-70
2023/03/06 08:11:00;;;;;;;55.38;15.13;;;4.90;81.00;;;;;;4965889;28;92545;-70
2023/03/06 08:13:26;;;;;;;59.17;13.18;;;4.90;79.80;;;;;;4964081;28;93922;-70
2023/03/06 08:15:51;;;;;;;185.68;22.90;;;4.90;79.80;;;;;;4964761;28;93117;-70
2023/03/06 08:18:17;;;;;;;82.53;15.45;;;5.00;80.20;;;;;;4974755;28;93296;-70
2023/03/06 08:20:43;;;;;;;51.33;13.52;;;5.20;79.60;;;;;;4979221;28;92815;-70
2023/03/06 08:23:09;;;;;;;55.78;14.27;;;5.20;78.70;;;;;;4981896;28;92799;-70
2023/03/06 08:25:35;;;;;;;57.08;13.70;;;5.20;78.80;;;;;;4975860;28;92583;-71
2023/03/06 08:28:01;;;;;;;42.47;13.48;;;5.30;78.10;;;;;;4976649;28;93788;-71
2023/03/06 08:30:26;;;;;;;41.45;13.13;;;5.50;77.90;;;;;;4978918;28;92841;-70
2023/03/06 08:32:52;;;;;;;380.52;33.70;;;5.50;77.60;;;;;;4987043;28;92751;-71
2023/03/06 08:35:17;;;;;;;89.70;16.42;;;5.60;78.20;;;;;;4974951;28;92334;-71
2023/03/06 08:37:43;;;;;;;79.03;14.45;;;5.60;78.00;;;;;;4977092;28;94278;-70
2023/03/06 08:40:09;;;;;;;38.35;13.57;;;5.60;77.50;;;;;;4975817;28;94277;-71
2023/03/06 08:42:35;;;;;;;187.60;21.75;;;5.60;77.00;;;;;;4974394;28;92378;-71
2023/03/06 08:45:01;;;;;;;263.58;29.30;;;5.50;77.10;;;;;;4975094;28;92559;-70
2023/03/06 08:47:26;;;;;;;45.60;12.63;;;5.50;77.90;;;;;;4982876;28;93256;-71
2023/03/06 08:49:52;;;;;;;38.47;12.77;;;5.60;77.70;;;;;;4983034;28;92827;-71
2023/03/06 08:52:18;;;;;;;34.63;11.40;;;5.80;77.50;;;;;;4979483;28;93928;-71
2023/03/06 08:54:44;;;;;;;35.42;12.20;;;5.90;77.60;;;;;;4979162;28;92525;-70
2023/03/06 08:57:10;;;;;;;33.47;11.88;;;6.00;76.80;;;;;;4987200;28;92446;-71
2023/03/06 08:59:36;;;;;;;35.20;11.93;;;6.00;76.50;;;;;;4973349;28;94198;-70
2023/03/06 09:02:02;;;;;;;35.45;11.98;;;6.10;76.20;;;;;;4979876;28;93560;-70
2023/03/06 09:04:30;;;;;;;35.22;11.60;;;6.10;76.70;;;;;;4978810;28;92771;-71
2023/03/06 09:06:56;;;;;;;32.67;11.40;;;6.00;76.40;;;;;;4977019;28;93716;-71
2023/03/06 09:09:21;;;;;;;33.85;11.02;;;6.00;76.20;;;;;;4975085;28;92974;-70
2023/03/06 09:11:47;;;;;;;33.40;11.18;;;6.00;75.80;;;;;;4983356;28;93138;-72
2023/03/06 09:14:13;;;;;;;30.90;11.35;;;5.90;75.90;;;;;;4969965;28;94214;-71
2023/03/06 09:16:39;;;;;;;29.45;10.48;;;5.90;76.20;;;;;;4964109;28;93759;-70
2023/03/06 09:19:05;;;;;;;28.55;10.77;;;5.90;76.20;;;;;;4965768;28;92540;-70
2023/03/06 09:21:31;;;;;;;28.92;10.73;;;6.00;75.60;;;;;;4965181;28;94057;-70
2023/03/06 09:23:57;;;;;;;36.05;11.57;;;6.00;75.80;;;;;;4962906;28;94652;-70
2023/03/06 09:26:23;;;;;;;33.22;11.30;;;6.00;76.30;;;;;;4961521;28;94297;-71
2023/03/06 09:28:49;;;;;;;29.35;11.00;;;6.10;76.50;;;;;;4965301;28;93507;-71
2023/03/06 09:31:17;;;;;;;36.47;10.90;;;6.10;75.30;;;;;;4963911;28;92587;-72
2023/03/06 09:33:43;;;;;;;26.63;10.90;;;6.00;75.20;;;;;;4963499;28;92828;-73
2023/03/06 09:36:20;;;;;;;31.63;11.57;;;6.00;75.20;;;;;;4961210;28;93917;-71
2023/03/06 09:38:47;;;;;;;33.95;11.52;;;5.90;74.80;;;;;;4968061;28;93583;-71
2023/03/06 09:41:35;;;;;;;31.58;11.40;;;5.90;75.30;;;;;;4981898;28;92515;-70
2023/03/06 09:44:04;;;;;;;29.92;11.70;;;5.90;76.10;;;;;;4967228;28;93163;-70
2023/03/06 09:46:42;;;;;;;33.80;12.85;;;5.90;76.70;;;;;;4956853;28;93488;-75
2023/03/06 09:49:28;;;;;;;34.67;13.98;;;5.90;77.50;;;;;;4960412;28;92966;-71
2023/03/06 09:52:06;;;;;;;40.63;14.20;;;5.90;77.30;;;;;;4963169;28;95270;-71
2023/03/06 09:54:52;;;;;;;35.83;13.70;;;6.00;76.90;;;;;;4961569;28;94085;-71
2023/03/06 09:57:22;;;;;;;36.15;13.52;;;6.10;77.20;;;;;;4966230;28;94146;-71
2023/03/06 09:59:53;;;;;;;37.78;13.10;;;6.10;76.80;;;;;;4962743;28;94080;-71
2023/03/06 10:02:23;;;;;;;36.80;13.75;;;6.20;77.70;;;;;;4990374;28;92436;-71
2023/03/06 10:04:58;;;;;;;41.17;13.75;;;6.30;76.40;;;;;;4981667;28;92539;-71
2023/03/06 10:07:32;;;;;;;33.30;13.18;;;6.30;76.80;;;;;;4974592;28;93380;-68
2023/03/06 10:10:04;;;;;;;38.30;12.90;;;6.40;76.10;;;;;;4990576;28;93456;-69
2023/03/06 10:13:02;;;;;;;42.92;13.38;;;6.60;76.20;;;;;;4980223;28;92160;-69
2023/03/06 10:15:34;;;;;;;38.83;12.88;;;6.60;75.60;;;;;;4982734;28;92446;-70
2023/03/06 10:18:02;;;;;;;33.63;11.73;;;6.70;73.90;;;;;;4969796;28;94978;-69
2023/03/06 10:20:47;;;;;;;31.98;12.05;;;6.80;73.80;;;;;;4976818;28;94109;-69
2023/03/06 10:23:35;;;;;;;29.17;10.60;;;6.90;72.60;;;;;;4977156;28;92397;-73
2023/03/06 10:26:18;;;;;;;29.45;11.02;;;7.00;72.20;;;;;;4981605;28;92089;-71
2023/03/06 10:29:16;;;;;;;;;;;7.10;71.40;;;;;;4982206;28;94805;-71
2023/03/06 10:31:47;;;;;;;27.45;8.00;;;7.20;68.40;;;;;;4980202;28;92409;-69
2023/03/06 10:34:31;;;;;;;20.70;8.35;;;7.40;69.00;;;;;;4997188;28;93206;-72
2023/03/06 10:37:01;;;;;;;20.60;7.45;;;7.50;68.20;;;;;;4976490;28;93062;-71
2023/03/06 10:39:28;;;;;;;23.35;8.88;;;7.60;68.40;;;;;;4973220;28;93320;-69
2023/03/06 10:41:54;;;;;;;22.25;8.73;;;7.60;69.00;;;;;;4970780;28;92441;-71
2023/03/06 10:44:22;;;;;;;20.63;8.10;;;7.60;68.00;;;;;;4977719;28;93992;-71
2023/03/06 10:46:51;;;;;;;18.52;7.13;;;7.60;67.20;;;;;;4982713;28;92494;-71
2023/03/06 10:49:28;;;;;;;18.83;6.75;;;7.50;66.60;;;;;;4982476;28;93608;-71
2023/03/06 10:52:02;;;;;;;17.30;6.78;;;7.50;66.70;;;;;;4975502;28;92957;-70
2023/03/06 10:54:31;;;;;;;19.85;7.10;;;7.60;66.50;;;;;;4984232;28;93168;-70
2023/03/06 10:57:15;;;;;;;17.42;7.25;;;7.80;67.30;;;;;;4984100;28;92430;-70
2023/03/06 11:00:03;;;;;;;21.13;7.57;;;7.90;66.30;;;;;;4996460;28;93531;-70
2023/03/06 11:02:35;;;;;;;19.83;8.25;;;7.90;65.50;;;;;;4975747;28;92409;-70
2023/03/06 11:05:02;;;;;;;21.30;8.20;;;8.00;65.80;;;;;;4975539;28;92544;-70
2023/03/06 11:07:32;;;;;;;21.33;8.43;;;8.00;66.40;;;;;;4986488;28;92317;-71
2023/03/06 11:09:58;;;;;;;17.38;6.40;;;8.00;66.10;;;;;;4970161;28;93958;-69
2023/03/06 11:12:32;;;;;;;18.38;8.75;;;8.10;64.80;;;;;;4980299;28;93687;-71
2023/03/06 11:15:13;;;;;;;19.38;6.38;;;8.20;65.20;;;;;;4975284;28;94174;-70
2023/03/06 11:18:00;;;;;;;20.10;8.65;;;8.20;64.80;;;;;;4976035;28;92357;-72
2023/03/06 11:20:46;;;;;;;25.10;11.00;;;8.20;64.90;;;;;;4976319;28;93589;-68
2023/03/06 11:23:37;;;;;;;18.17;7.65;;;8.20;65.80;;;;;;4966318;28;92568;-73
2023/03/06 11:26:14;;;;;;;15.75;6.35;;;8.20;66.20;;;;;;4964636;28;92609;-72
2023/03/06 11:29:05;;;;;;;16.35;5.88;;;8.10;65.00;;;;;;4968018;28;91634;-70
2023/03/06 11:31:36;;;;;;;12.50;5.18;;;7.90;63.60;;;;;;4962291;28;94305;-70
2023/03/06 11:34:18;;;;;;;12.75;4.88;;;7.80;63.50;;;;;;4965145;28;92554;-73
2023/03/06 11:36:48;;;;;;;9.25;4.28;;;7.80;63.20;;;;;;4959183;28;94403;-71
2023/03/06 11:39:37;;;;;;;11.10;4.32;;;7.70;63.30;;;;;;4961525;28;93766;-71
2023/03/06 11:42:16;;;;;;;9.70;4.30;;;7.80;64.30;;;;;;4972782;28;93227;-70
2023/03/06 11:45:05;;;;;;;10.02;4.07;;;7.90;63.70;;;;;;4975624;28;93116;-71
2023/03/06 11:47:41;;;;;;;9.43;4.03;;;7.80;62.90;;;;;;4962819;28;92940;-72
2023/03/06 11:50:36;;;;;;;10.10;4.30;;;7.80;63.10;;;;;;4963624;28;92350;-72
2023/03/06 11:53:10;;;;;;;9.75;4.32;;;7.90;62.70;;;;;;4971275;28;92513;-69
2023/03/06 11:55:57;;;;;;;9.98;3.80;;;8.00;62.20;;;;;;4966709;28;92921;-68
2023/03/06 11:59:02;;;;;;;11.98;4.78;;;7.90;62.50;;;;;;4965975;28;95103;-71
2023/03/06 12:01:40;;;;;;;10.35;4.57;;;7.80;63.20;;;;;;4946399;28;92283;-72
2023/03/06 12:04:40;;;;;;;11.38;4.20;;;7.80;62.80;;;;;;4970947;28;94289;-72
2023/03/06 12:07:29;;;;;;;12.52;4.38;;;7.70;63.10;;;;;;4966597;28;93012;-71
2023/03/06 12:10:03;;;;;;;11.85;4.63;;;7.70;63.70;;;;;;4961205;28;93477;-69
2023/03/06 12:12:31;;;;;;;10.25;4.22;;;7.80;63.90;;;;;;4963256;28;92796;-70
2023/03/06 12:15:36;;;;;;;13.75;4.13;;;7.90;63.00;;;;;;4962010;28;94929;-71
2023/03/06 12:18:20;;;;;;;13.05;4.47;;;7.90;62.70;;;;;;4973387;28;92898;-69
2023/03/06 12:20:55;;;;;;;11.13;4.55;;;7.90;62.50;;;;;;4973667;28;92620;-70
2023/03/06 12:23:42;;;;;;;11.25;4.50;;;8.00;62.40;;;;;;4975298;28;91736;-69
2023/03/06 12:26:19;;;;;;;12.05;4.75;;;8.10;61.80;;;;;;4973840;28;93059;-69
2023/03/06 12:28:57;;;;;;;11.63;4.82;;;8.10;62.50;;;;;;4974427;28;93479;-70
2023/03/06 12:31:38;;;;;;;13.32;4.65;;;8.30;61.60;;;;;;4964877;28;93497;-71
2023/03/06 12:34:57;;;;;;;16.02;5.40;;;8.40;62.40;;;;;;4966818;28;94425;-73
2023/03/06 12:37:32;;;;;;;10.57;4.50;;;8.50;62.10;;;;;;4971583;28;93217;-71
2023/03/06 12:40:08;;;;;;;12.48;5.40;;;8.60;61.10;;;;;;4981510;28;92933;-70
2023/03/06 12:42:52;;;;;;;13.52;5.28;;;8.80;61.90;;;;;;4975480;28;92310;-74
2023/03/06 12:45:31;;;;;;;9.88;4.53;;;8.90;60.60;;;;;;4976265;28;92359;-71
2023/03/06 12:47:57;;;;;;;10.63;4.65;;;8.90;60.50;;;;;;4994668;28;92749;-70
2023/03/06 12:50:37;;;;;;;15.13;7.55;;;8.90;61.60;;;;;;4995174;28;92443;-70